Time;durP1;ratioP1;P1;durP2;ratioP2;P2;SDS_P1;SDS_P2;PMS_P1;PMS_P2;Temp;Humidity;BMP_temperature;BMP_pressure;BME280_temperature;BME280_humidity;BME280_pressure;Samples;Min_cycle;Max_cycle;Signal;HPM_P1;HPM_P2
2022/09/01 00:01:41;;;;;;;;;10.00;10.00;;;;;23.56;46.07;101001.38;5071791;27;45663;-43
2022/09/01 00:04:10;;;;;;;;;11.50;11.00;;;;;23.57;45.97;101012.91;5073517;27;45866;-41
2022/09/01 00:06:39;;;;;;;;;12.00;10.25;;;;;23.54;45.56;101002.47;5054954;28;45522;-43
2022/09/01 00:09:10;;;;;;;;;14.75;12.75;;;;;23.56;45.60;101011.22;5067124;27;45571;-42
2022/09/01 00:11:41;;;;;;;;;16.50;14.00;;;;;23.54;45.69;101007.81;5077850;27;46258;-42
2022/09/01 00:14:08;;;;;;;;;14.25;12.75;;;;;23.50;45.95;101008.06;5079069;27;45740;-42
2022/09/01 00:16:34;;;;;;;;;13.00;13.00;;;;;23.48;46.20;101001.97;5059780;28;45303;-42
2022/09/01 00:18:59;;;;;;;;;12.00;12.00;;;;;23.45;46.17;101007.56;5075564;27;45590;-42
2022/09/01 00:21:31;;;;;;;;;14.75;12.25;;;;;23.43;46.77;101006.84;5070490;27;50516;-41
2022/09/01 00:23:58;;;;;;;;;13.00;12.00;;;;;23.40;46.47;101004.38;5079147;27;45442;-44
2022/09/01 00:26:23;;;;;;;;;13.50;10.25;;;;;23.40;46.42;101000.88;5073341;27;45262;-41
2022/09/01 00:28:50;;;;;;;;;13.25;12.50;;;;;23.38;47.29;100998.31;5070153;27;45285;-43
2022/09/01 00:31:17;;;;;;;;;13.25;11.50;;;;;23.34;46.66;101002.19;5053194;28;46136;-43
2022/09/01 00:33:43;;;;;;;;;14.00;12.00;;;;;23.35;47.03;100992.38;5071716;27;45547;-42
2022/09/01 00:36:08;;;;;;;;;15.00;13.00;;;;;23.33;46.98;100989.81;5070713;27;45410;-45
2022/09/01 00:38:34;;;;;;;;;15.00;13.25;;;;;23.34;46.88;100991.53;5064489;27;45403;-44
2022/09/01 00:41:00;;;;;;;;;13.00;12.25;;;;;23.35;46.36;101006.56;5065007;27;46281;-43
2022/09/01 00:43:40;;;;;;;;;13.75;13.00;;;;;23.35;47.21;100993.19;5075263;27;45657;-42
2022/09/01 00:46:08;;;;;;;;;15.50;13.75;;;;;23.37;46.82;100990.41;5053310;27;45517;-43
2022/09/01 00:48:34;;;;;;;;;13.00;11.50;;;;;23.36;47.04;100994.06;5067749;27;45519;-41
2022/09/01 00:51:00;;;;;;;;;14.75;12.75;;;;;23.36;46.94;100994.91;5074531;27;46137;-43
2022/09/01 00:53:26;;;;;;;;;19.25;12.50;;;;;23.35;47.05;100992.38;5044077;28;45436;-42
2022/09/01 00:55:51;;;;;;;;;14.25;12.50;;;;;23.35;47.31;100995.88;5076307;27;45447;-44
2022/09/01 00:58:17;;;;;;;;;11.00;10.75;;;;;23.33;47.56;100995.16;5070216;28;70010;-42
2022/09/01 01:00:45;;;;;;;;;12.50;11.00;;;;;23.30;46.47;100988.22;5074827;28;46916;-43
2022/09/01 01:03:11;;;;;;;;;14.50;12.25;;;;;23.27;47.09;100993.81;5075671;28;60921;-44
2022/09/01 01:05:45;;;;;;;;;13.00;10.50;;;;;23.22;47.08;100990.63;5067911;28;45538;-44
2022/09/01 01:08:10;;;;;;;;;11.75;10.75;;;;;23.18;47.71;100985.63;5051058;28;45414;-41
2022/09/01 01:10:39;;;;;;;;;15.50;10.75;;;;;23.17;47.54;100984.78;5070677;28;46043;-43
2022/09/01 01:13:08;;;;;;;;;14.25;11.25;;;;;23.17;46.56;100982.13;5061950;27;45462;-43
2022/09/01 01:15:33;;;;;;;;;15.50;12.50;;;;;23.17;47.07;100987.47;5059382;28;45527;-40
2022/09/01 01:17:58;;;;;;;;;12.75;11.75;;;;;23.13;47.81;100978.84;5072070;27;45213;-40
2022/09/01 01:23:29;;;;;;;;;13.75;11.00;;;;;;;;5065833;27;45223;-42
2022/09/01 01:25:58;;;;;;;;;17.50;13.25;;;;;22.98;47.69;100987.97;5067515;27;45273;-42
2022/09/01 01:28:30;;;;;;;;;12.50;12.00;;;;;22.96;47.94;100976.56;5038550;28;45496;-52
2022/09/01 01:31:00;;;;;;;;;14.25;12.75;;;;;22.95;48.19;100980.22;5052169;27;46303;-50
2022/09/01 01:33:33;;;;;;;;;12.25;12.00;;;;;22.89;47.52;100986.84;5065170;27;46057;-42
2022/09/01 01:35:58;;;;;;;;;12.75;12.25;;;;;22.83;47.54;100981.97;5052512;27;45449;-46
2022/09/01 01:38:26;;;;;;;;;12.50;11.25;;;;;22.77;48.42;100978.91;5055947;27;45322;-41
2022/09/01 01:40:52;;;;;;;;;14.75;12.75;;;;;22.70;48.27;100982.03;5054487;27;46089;-41
2022/09/01 01:43:21;;;;;;;;;11.75;11.75;;;;;22.67;47.74;100984.94;5075574;27;45745;-41
2022/09/01 01:45:50;;;;;;;;;15.25;12.75;;;;;22.63;48.59;100987.91;5073250;27;45502;-42
2022/09/01 01:48:22;;;;;;;;;13.75;13.00;;;;;22.61;49.59;100979.19;5070556;27;45330;-41
2022/09/01 01:50:48;;;;;;;;;12.00;11.50;;;;;22.59;48.38;100986.47;5079153;27;46149;-41
2022/09/01 01:53:16;;;;;;;;;15.25;10.75;;;;;22.54;49.53;100982.31;5074434;27;45448;-42
2022/09/01 01:55:42;;;;;;;;;14.25;11.00;;;;;22.52;49.16;100988.72;5073216;27;45456;-42
2022/09/01 01:58:10;;;;;;;;;12.50;11.50;;;;;22.49;48.94;100989.81;5078631;27;45565;-42
2022/09/01 02:00:37;;;;;;;;;11.75;11.75;;;;;22.48;49.52;100988.09;5077294;27;46182;-42
2022/09/01 02:03:04;;;;;;;;;12.50;11.75;;;;;22.46;49.35;100991.84;5074390;27;45733;-42
2022/09/01 02:05:32;;;;;;;;;11.50;9.50;;;;;22.45;49.78;100992.78;5079344;27;45628;-42
2022/09/01 02:08:08;;;;;;;;;11.00;10.75;;;;;22.44;49.31;100993.78;5073254;27;45443;-42
2022/09/01 02:10:40;;;;;;;;;13.00;10.75;;;;;22.43;49.24;100994.72;5077431;27;46449;-42
2022/09/01 02:13:06;;;;;;;;;12.75;11.25;;;;;22.39;49.66;100990.59;5076967;27;45512;-42
2022/09/01 02:15:44;;;;;;;;;10.25;10.25;;;;;22.33;49.69;100989.22;5079701;27;45358;-42
2022/09/01 02:18:18;;;;;;;;;12.75;12.00;;;;;22.28;49.56;100994.03;5074742;27;45488;-41
2022/09/01 02:20:49;;;;;;;;;10.50;9.75;;;;;22.24;50.39;100988.03;5077426;27;47041;-42
2022/09/01 02:23:18;;;;;;;;;12.00;11.25;;;;;22.24;49.21;100995.16;5079251;27;45334;-41
2022/09/01 02:25:45;;;;;;;;;11.75;9.75;;;;;22.21;50.00;100990.94;5075870;27;45476;-42
2022/09/01 02:28:14;;;;;;;;;10.75;9.00;;;;;22.19;50.15;100991.03;5075182;27;45225;-42
2022/09/01 02:30:44;;;;;;;;;12.00;10.00;;;;;22.17;49.37;100992.97;5068054;27;46035;-41
2022/09/01 02:33:14;;;;;;;;;15.50;12.00;;;;;22.15;50.08;100992.22;5078034;27;45830;-42
2022/09/01 02:35:41;;;;;;;;;15.00;11.50;;;;;22.16;50.36;101001.06;5073536;27;45333;-42
2022/09/01 02:38:07;;;;;;;;;10.00;9.50;;;;;22.18;51.13;100999.97;5067570;27;45458;-41
2022/09/01 02:40:32;;;;;;;;;12.75;11.50;;;;;22.19;49.97;100996.38;5067318;27;46419;-44
2022/09/01 02:42:59;;;;;;;;;11.50;10.25;;;;;22.16;50.55;100993.06;5070072;27;63021;-41
2022/09/01 02:45:28;;;;;;;;;12.75;12.75;;;;;22.14;49.28;100995.84;5078973;27;46890;-42
2022/09/01 02:47:55;;;;;;;;;13.00;10.75;;;;;22.07;50.08;100989.25;5070975;27;45616;-43
2022/09/01 02:50:23;;;;;;;;;11.00;10.50;;;;;22.02;50.44;100994.03;5079786;27;47026;-43
2022/09/01 02:52:48;;;;;;;;;11.00;10.50;;;;;21.96;50.20;100982.00;5076616;27;45888;-44
2022/09/01 02:55:20;;;;;;;;;13.75;12.00;;;;;21.95;50.30;100985.63;5052178;28;45460;-44
2022/09/01 02:57:49;;;;;;;;;12.50;11.00;;;;;21.94;50.10;100994.59;5075028;27;45314;-42
2022/09/01 03:00:21;;;;;;;;;14.25;10.25;;;;;21.90;50.12;100989.59;5068988;28;46175;-41
2022/09/01 03:02:51;;;;;;;;;12.50;9.50;;;;;21.87;50.76;100985.34;5050969;27;45820;-42
2022/09/01 03:05:24;;;;;;;;;14.75;12.00;;;;;21.83;50.15;100986.50;5068661;27;45518;-42
2022/09/01 03:07:53;;;;;;;;;14.00;12.00;;;;;21.79;51.01;100987.69;5074193;27;45470;-41
2022/09/01 03:10:20;;;;;;;;;16.00;12.25;;;;;21.75;50.80;100986.19;5078154;27;47129;-42
2022/09/01 03:12:45;;;;;;;;;13.50;11.50;;;;;21.72;50.26;100992.59;5051850;28;46122;-42
2022/09/01 03:15:12;;;;;;;;;12.75;12.00;;;;;21.69;51.46;100990.16;5075115;27;45558;-42
2022/09/01 03:17:37;;;;;;;;;12.00;9.00;;;;;21.68;50.94;100987.59;5056082;28;47114;-42
2022/09/01 03:20:03;;;;;;;;;11.25;11.25;;;;;21.64;51.48;100986.97;5041692;27;45328;-44
2022/09/01 03:22:28;;;;;;;;;16.00;11.00;;;;;21.63;51.78;100984.41;5077121;27;45313;-43
2022/09/01 03:24:55;;;;;;;;;11.25;10.75;;;;;21.65;51.25;100985.97;5067761;27;45379;-42
2022/09/01 03:27:20;;;;;;;;;13.00;11.50;;;;;21.64;51.51;100978.09;5072746;27;45371;-42
2022/09/01 03:29:45;;;;;;;;;10.00;10.00;;;;;21.64;51.16;100984.28;5066258;27;69481;-42
2022/09/01 03:32:11;;;;;;;;;15.00;11.50;;;;;21.63;51.51;100977.25;5070714;27;60844;-44
2022/09/01 03:34:37;;;;;;;;;11.00;10.75;;;;;21.64;51.65;100978.09;5065484;27;49873;-41
2022/09/01 03:37:06;;;;;;;;;11.00;11.00;;;;;21.62;51.18;100978.22;5070404;27;45404;-42
2022/09/01 03:39:32;;;;;;;;;13.25;11.75;;;;;21.61;51.17;100980.00;5074443;27;46191;-43
2022/09/01 03:41:58;;;;;;;;;12.00;11.50;;;;;21.57;51.04;100977.69;5071783;27;45463;-46
2022/09/01 03:44:24;;;;;;;;;12.25;11.00;;;;;21.54;51.52;100976.06;5071952;27;45355;-50
2022/09/01 03:46:50;;;;;;;;;17.00;12.50;;;;;21.53;51.14;100976.19;5048306;28;45454;-42
2022/09/01 03:49:22;;;;;;;;;13.25;10.75;;;;;21.49;51.39;100977.34;5075752;27;46173;-42
2022/09/01 03:51:47;;;;;;;;;14.75;13.00;;;;;21.46;51.40;100975.78;5075153;27;45466;-47
2022/09/01 03:54:13;;;;;;;;;14.50;12.25;;;;;21.47;52.21;100968.63;5055098;28;60455;-45
2022/09/01 03:56:40;;;;;;;;;12.00;11.50;;;;;21.46;51.75;100973.13;5063000;27;45505;-44
2022/09/01 03:59:06;;;;;;;;;12.75;10.00;;;;;21.49;51.94;100961.38;5071331;27;46432;-46
2022/09/01 04:01:36;;;;;;;;;15.50;13.00;;;;;21.49;51.41;100967.56;5055782;28;45234;-46
2022/09/01 04:04:05;;;;;;;;;15.00;11.00;;;;;21.44;51.16;100966.97;5074218;27;45610;-45
2022/09/01 04:06:30;;;;;;;;;13.00;11.50;;;;;21.40;51.60;100971.66;5066919;27;45580;-45
2022/09/01 04:09:01;;;;;;;;;11.00;10.50;;;;;21.35;51.70;100960.47;5060295;28;46196;-45
2022/09/01 04:11:27;;;;;;;;;16.75;15.25;;;;;21.33;51.43;100966.88;5068667;27;46809;-43
2022/09/01 04:13:53;;;;;;;;;10.75;10.50;;;;;21.29;52.00;100962.72;5074435;27;45358;-47
2022/09/01 04:19:25;;;;;;;;;12.50;11.50;;;;;21.24;52.43;100957.72;5062110;28;45558;-44
2022/09/01 04:21:54;;;;;;;;;14.25;12.25;;;;;21.21;51.99;100958.78;5045727;28;45983;-43
2022/09/01 04:24:23;;;;;;;;;14.50;12.50;;;;;21.19;52.23;100958.00;5068813;27;46932;-42
2022/09/01 04:26:48;;;;;;;;;11.75;10.75;;;;;21.17;52.23;100954.59;5071936;28;45459;-42
2022/09/01 04:29:18;;;;;;;;;15.75;11.00;;;;;21.16;52.21;100962.69;5064754;28;46229;-44
2022/09/01 04:31:44;;;;;;;;;8.75;8.75;;;;;21.15;51.88;100959.19;5073005;27;45384;-44
2022/09/01 04:34:12;;;;;;;;;15.75;12.25;;;;;21.12;52.04;100956.72;5076655;27;45428;-42
2022/09/01 04:36:40;;;;;;;;;13.25;11.50;;;;;21.11;51.84;100952.38;5062764;27;45663;-42
2022/09/01 04:39:08;;;;;;;;;13.50;11.75;;;;;21.09;52.73;100951.63;5072263;27;47142;-41
2022/09/01 04:41:36;;;;;;;;;11.75;9.00;;;;;21.10;52.34;100952.47;5049183;28;45556;-42
2022/09/01 04:44:03;;;;;;;;;11.00;10.75;;;;;21.09;52.17;100948.09;5078643;27;45281;-41
2022/09/01 04:46:31;;;;;;;;;14.25;12.75;;;;;21.08;52.17;100957.06;5068343;27;45238;-42
2022/09/01 04:48:57;;;;;;;;;13.25;12.25;;;;;21.07;52.66;100958.00;5063209;27;47136;-42
2022/09/01 04:51:26;;;;;;;;;13.75;11.50;;;;;21.04;52.24;100956.41;5075389;27;45383;-41
2022/09/01 04:53:53;;;;;;;;;13.75;11.75;;;;;21.04;51.85;100959.91;5072549;27;45433;-42
2022/09/01 04:56:21;;;;;;;;;14.00;9.50;;;;;21.02;52.07;100959.19;5074908;27;45355;-42
2022/09/01 04:58:50;;;;;;;;;11.50;10.75;;;;;21.01;51.99;100957.47;5070588;27;47206;-41
2022/09/01 05:01:19;;;;;;;;;11.25;10.25;;;;;21.01;52.19;100957.47;5074193;27;46007;-43
2022/09/01 05:03:45;;;;;;;;;12.75;11.00;;;;;21.01;51.95;100956.63;5066696;27;45294;-41
2022/09/01 05:06:16;;;;;;;;;13.50;9.50;;;;;20.99;51.95;100955.88;5063555;27;45388;-41
2022/09/01 05:08:43;;;;;;;;;13.25;12.75;;;;;20.98;52.02;100959.47;5076002;27;46440;-42
2022/09/01 05:11:10;;;;;;;;;9.75;9.75;;;;;20.96;51.80;100956.06;5074981;27;45731;-42
2022/09/01 05:13:38;;;;;;;;;10.50;10.50;;;;;20.95;52.20;100963.22;5068245;27;46731;-42
2022/09/01 05:16:11;;;;;;;;;12.00;10.75;;;;;20.95;52.71;100965.88;5067554;27;45493;-42
2022/09/01 05:18:38;;;;;;;;;12.50;11.00;;;;;20.95;52.36;100962.38;5066350;28;47249;-41
2022/09/01 05:21:09;;;;;;;;;10.25;10.25;;;;;20.94;51.97;100956.16;5067964;27;45549;-40
2022/09/01 05:23:37;;;;;;;;;11.00;11.00;;;;;20.94;52.64;100961.50;5076396;27;45456;-43
2022/09/01 05:26:05;;;;;;;;;14.00;11.00;;;;;20.94;52.34;100963.31;5073487;27;45221;-42
2022/09/01 05:28:30;;;;;;;;;13.50;9.00;;;;;20.92;52.32;100957.25;5068652;27;46191;-46
2022/09/01 05:30:59;;;;;;;;;11.00;10.00;;;;;20.93;52.17;100969.56;5073955;27;47923;-42
2022/09/01 05:33:25;;;;;;;;;12.75;10.00;;;;;20.92;52.15;100966.06;5055575;27;45605;-40
2022/09/01 05:35:55;;;;;;;;;13.00;11.00;;;;;20.92;52.62;100959.91;5079582;27;68251;-41
2022/09/01 05:38:24;;;;;;;;;11.00;10.75;;;;;20.91;52.68;100960.84;5057251;28;46173;-41
2022/09/01 05:41:05;;;;;;;;;13.50;12.25;;;;;20.91;51.93;100960.84;5050207;28;45668;-42
2022/09/01 05:43:32;;;;;;;;;12.25;11.00;;;;;20.94;52.25;100960.66;5068445;27;45509;-42
2022/09/01 05:45:59;;;;;;;;;11.75;11.75;;;;;20.95;52.06;100957.03;5072733;27;45520;-42
2022/09/01 05:48:30;;;;;;;;;11.25;10.50;;;;;20.96;52.35;100956.91;5061313;28;47165;-41
2022/09/01 05:50:56;;;;;;;;;13.50;11.75;;;;;20.98;52.42;100952.38;5073800;27;45443;-41
2022/09/01 05:53:24;;;;;;;;;13.50;11.50;;;;;20.99;52.00;100954.06;5063855;27;45328;-45
2022/09/01 05:55:55;;;;;;;;;12.50;10.50;;;;;21.00;52.80;100953.13;5066172;27;45450;-44
2022/09/01 05:58:23;;;;;;;;;15.00;12.00;;;;;20.99;52.31;100962.03;5066344;27;45450;-41
2022/09/01 06:00:50;;;;;;;;;14.50;12.00;;;;;21.00;52.26;100961.09;5069769;28;45548;-42
2022/09/01 06:03:16;;;;;;;;;13.75;12.00;;;;;21.02;52.37;100966.31;5064638;27;45474;-43
2022/09/01 06:05:44;;;;;;;;;11.00;11.00;;;;;21.04;52.50;100961.75;5070809;27;45246;-41
2022/09/01 06:08:12;;;;;;;;;12.50;11.75;;;;;21.08;52.27;100965.88;5072759;27;46427;-41
2022/09/01 06:10:39;;;;;;;;;14.25;12.00;;;;;21.10;52.11;100961.31;5047890;28;45437;-41
2022/09/01 06:13:06;;;;;;;;;17.25;12.25;;;;;21.14;51.97;100967.28;5081171;27;45338;-41
2022/09/01 06:15:37;;;;;;;;;14.50;13.25;;;;;21.15;52.31;100966.34;5075576;27;45521;-41
2022/09/01 06:18:04;;;;;;;;;14.50;11.75;;;;;21.16;51.75;100968.00;5055654;28;46149;-40
2022/09/01 06:20:30;;;;;;;;;14.25;11.75;;;;;21.18;52.51;100971.44;5075562;27;46048;-47
2022/09/01 06:22:56;;;;;;;;;11.50;11.50;;;;;21.20;52.12;100969.53;5073427;27;46163;-43
2022/09/01 06:25:21;;;;;;;;;12.75;12.75;;;;;21.22;52.22;100972.94;5072001;27;57777;-45
2022/09/01 06:27:47;;;;;;;;;17.00;15.00;;;;;21.24;51.82;100971.88;5068657;28;50962;-43
2022/09/01 06:30:16;;;;;;;;;18.00;15.25;;;;;21.26;52.25;100977.09;5076680;27;45214;-43
2022/09/01 06:32:45;;;;;;;;;13.00;12.75;;;;;21.29;52.17;100974.22;5068279;27;45652;-43
2022/09/01 06:35:12;;;;;;;;;11.50;11.50;;;;;21.34;51.62;100974.75;5076423;27;45118;-44
2022/09/01 06:37:38;;;;;;;;;14.50;10.00;;;;;21.36;51.67;100975.50;5074850;27;47227;-44
2022/09/01 06:40:04;;;;;;;;;16.75;11.50;;;;;21.41;51.46;100972.53;5067710;27;45466;-46
2022/09/01 06:42:33;;;;;;;;;11.50;11.50;;;;;21.45;51.43;100976.69;5066223;27;45261;-44
2022/09/01 06:44:59;;;;;;;;;11.00;10.75;;;;;21.46;51.65;100965.13;5074722;28;45627;-44
2022/09/01 06:47:27;;;;;;;;;115.50;100.00;;;;;21.50;51.77;100973.75;5066002;27;45384;-45
2022/09/01 06:49:57;;;;;;;;;13.75;10.00;;;;;21.53;51.12;100977.06;5051014;28;45803;-41
2022/09/01 06:52:23;;;;;;;;;13.25;10.75;;;;;21.54;51.39;100975.22;5069153;27;45645;-43
2022/09/01 06:54:50;;;;;;;;;11.00;10.25;;;;;21.55;51.11;100975.13;5072933;28;45332;-45
2022/09/01 06:57:16;;;;;;;;;13.00;12.00;;;;;21.57;51.15;100975.88;5061712;28;46239;-49
2022/09/01 06:59:41;;;;;;;;;11.00;9.50;;;;;21.60;51.51;100974.78;5080212;28;45196;-45
2022/09/01 07:02:07;;;;;;;;;13.00;10.25;;;;;21.64;51.11;100972.75;5079760;28;61701;-48
2022/09/01 07:04:33;;;;;;;;;12.00;9.00;;;;;21.67;50.99;100978.72;5080161;28;45569;-47
2022/09/01 07:06:59;;;;;;;;;12.25;10.75;;;;;21.72;51.43;100981.94;5080300;28;46318;-45
2022/09/01 07:09:25;;;;;;;;;9.00;9.00;;;;;21.76;50.85;100972.78;5073074;28;45507;-46
2022/09/01 07:11:51;;;;;;;;;14.25;12.00;;;;;21.79;50.77;100969.88;5080460;28;45286;-46
2022/09/01 07:14:18;;;;;;;;;11.25;9.75;;;;;21.85;51.13;100976.59;5061850;28;45742;-44
2022/09/01 07:16:43;;;;;;;;;15.00;11.50;;;;;21.90;51.03;100970.94;5078027;28;45552;-43
2022/09/01 07:19:13;;;;;;;;;11.75;11.00;;;;;21.97;50.84;100975.75;5079425;28;45298;-46
2022/09/01 07:21:39;;;;;;;;;14.25;10.25;;;;;22.01;51.10;100973.72;5051148;28;45363;-46
2022/09/01 07:24:05;;;;;;;;;11.00;10.00;;;;;22.06;50.90;100979.56;5061823;28;45533;-45
2022/09/01 07:26:32;;;;;;;;;13.75;8.75;;;;;22.09;51.03;100983.81;5079274;28;47161;-46
2022/09/01 07:28:58;;;;;;;;;13.00;12.00;;;;;22.13;50.47;100983.50;5078552;28;46055;-45
2022/09/01 07:31:26;;;;;;;;;11.25;10.00;;;;;22.18;50.89;100986.66;5046105;28;45295;-46
2022/09/01 07:33:53;;;;;;;;;13.25;12.00;;;;;22.24;50.51;100985.38;5079265;28;45348;-46
2022/09/01 07:36:19;;;;;;;;;11.50;11.50;;;;;22.29;50.12;100982.41;5075683;28;47400;-47
2022/09/01 07:38:50;;;;;;;;;11.50;10.00;;;;;22.31;50.44;100978.66;5073290;28;45392;-44
2022/09/01 07:41:16;;;;;;;;;9.50;8.50;;;;;22.36;50.40;100987.19;5072635;28;45361;-45
2022/09/01 07:43:43;;;;;;;;;17.50;13.00;;;;;22.41;50.43;100983.31;5053414;28;63399;-45
2022/09/01 07:46:09;;;;;;;;;17.50;15.50;;;;;22.43;50.40;100986.72;5079876;28;46154;-45
2022/09/01 07:48:35;;;;;;;;;17.50;15.00;;;;;22.45;49.78;100987.47;5061341;28;45769;-45
2022/09/01 07:51:00;;;;;;;;;11.25;11.25;;;;;22.50;50.13;100979.97;5072189;28;45351;-44
2022/09/01 07:53:30;;;;;;;;;15.75;13.00;;;;;22.51;49.62;100979.03;5078090;28;45332;-45
2022/09/01 07:55:57;;;;;;;;;11.75;11.00;;;;;22.54;49.65;100984.13;5061829;28;46989;-43
2022/09/01 07:58:26;;;;;;;;;13.00;11.25;;;;;22.59;49.93;100981.97;5066494;28;45251;-47
2022/09/01 08:00:53;;;;;;;;;10.25;9.75;;;;;22.64;49.63;100997.66;5071523;28;45347;-43
2022/09/01 08:03:23;;;;;;;;;14.25;12.00;;;;;22.69;49.90;100988.31;5050602;28;45553;-43
2022/09/01 08:05:52;;;;;;;;;14.00;12.00;;;;;22.73;49.57;100991.63;5049583;28;45648;-45
2022/09/01 08:08:19;;;;;;;;;12.75;11.25;;;;;22.76;49.82;100996.75;5061291;28;45695;-44
2022/09/01 08:10:45;;;;;;;;;16.75;13.00;;;;;22.78;49.62;100991.28;5081678;27;45639;-45
2022/09/01 08:13:11;;;;;;;;;10.75;8.50;;;;;22.82;49.35;100984.75;5063303;28;45525;-45
2022/09/01 08:15:38;;;;;;;;;12.75;11.00;;;;;22.85;49.54;100990.72;5060189;28;45439;-43
2022/09/01 08:18:03;;;;;;;;;16.75;13.25;;;;;22.90;49.66;100991.22;5037342;28;45813;-45
2022/09/01 08:20:29;;;;;;;;;16.75;10.25;;;;;22.94;49.51;100997.19;5061663;28;46363;-44
2022/09/01 08:22:55;;;;;;;;;12.75;12.00;;;;;23.01;48.84;100989.56;5085727;27;45517;-46
2022/09/01 08:25:20;;;;;;;;;14.00;10.00;;;;;23.03;48.78;100984.97;5061410;28;45345;-44
2022/09/01 08:27:46;;;;;;;;;15.25;12.50;;;;;23.10;48.74;100991.56;5067503;28;48791;-43
2022/09/01 08:30:12;;;;;;;;;7.25;5.75;;;;;23.16;48.44;100987.56;5067980;28;45538;-44
2022/09/01 08:32:40;;;;;;;;;14.50;12.50;;;;;23.21;48.48;100991.59;5060980;28;45375;-49
2022/09/01 08:35:08;;;;;;;;;11.50;11.00;;;;;23.26;48.55;100994.75;5078123;28;47084;-44
2022/09/01 08:37:34;;;;;;;;;11.25;11.25;;;;;23.29;48.15;100994.53;5067404;28;45942;-44
2022/09/01 08:39:59;;;;;;;;;10.75;8.00;;;;;23.32;48.58;100996.13;5067015;28;45392;-44
2022/09/01 08:42:47;;;;;;;;;14.50;12.25;;;;;23.34;48.21;100999.53;5085073;27;45284;-45
2022/09/01 08:45:32;;;;;;;;;13.50;12.00;;;;;23.34;48.25;101004.00;5048554;28;45463;-44
2022/09/01 08:48:04;;;;;;;;;15.00;13.00;;;;;23.33;48.19;101000.50;5061022;28;45300;-43
2022/09/01 08:50:32;;;;;;;;;14.75;12.50;;;;;23.34;48.05;101006.66;5032525;28;45586;-43
2022/09/01 08:53:06;;;;;;;;;11.00;9.75;;;;;23.34;48.05;100999.53;5073130;28;45383;-43
2022/09/01 08:55:49;;;;;;;;;15.00;11.75;;;;;23.35;47.94;100992.38;5087832;27;45441;-44
2022/09/01 08:58:16;;;;;;;;;13.00;11.00;;;;;23.41;47.97;101002.56;5056704;28;45561;-44
2022/09/01 09:00:45;;;;;;;;;14.75;12.00;;;;;23.45;47.97;100996.88;5064856;28;45400;-44
2022/09/01 09:03:23;;;;;;;;;14.75;11.25;;;;;23.48;47.81;101001.97;5064496;28;45463;-44
2022/09/01 09:05:55;;;;;;;;;14.75;12.25;;;;;23.54;47.91;101002.47;5064225;28;46998;-45
2022/09/01 09:08:38;;;;;;;;;14.25;10.25;;;;;23.59;47.75;101005.66;5069644;28;45757;-44
2022/09/01 09:11:25;;;;;;;;;15.00;13.00;;;;;23.64;47.28;101001.66;5054300;28;45531;-48
2022/09/01 09:14:27;;;;;;;;;14.00;12.75;;;;;23.72;47.50;101005.53;5074486;28;45543;-44
2022/09/01 09:16:55;;;;;;;;;18.00;12.50;;;;;23.80;47.21;101013.81;5085651;27;45450;-45
2022/09/01 09:19:30;;;;;;;;;11.25;10.75;;;;;23.87;47.10;101010.56;5080959;28;45234;-45
2022/09/01 09:21:58;;;;;;;;;13.00;11.25;;;;;23.95;47.05;101006.44;5083786;27;45517;-49
2022/09/01 09:24:27;;;;;;;;;16.75;11.50;;;;;24.03;46.94;101010.19;5069025;28;45446;-45
2022/09/01 09:26:55;;;;;;;;;18.50;15.50;;;;;24.11;46.61;101006.06;5081095;28;47041;-45
2022/09/01 09:29:21;;;;;;;;;15.75;12.50;;;;;24.16;46.33;101002.03;5053725;28;45268;-45
2022/09/01 09:31:47;;;;;;;;;12.25;10.00;;;;;24.21;46.57;101001.69;5082063;28;45470;-44
2022/09/01 09:34:36;;;;;;;;;11.25;9.25;;;;;24.29;46.46;101009.06;5081289;28;45669;-49
2022/09/01 09:37:25;;;;;;;;;15.75;10.50;;;;;24.38;46.40;101001.16;5081802;28;47050;-46
2022/09/01 09:40:08;;;;;;;;;15.75;10.50;;;;;24.50;46.17;100996.63;5081892;28;45150;-46
2022/09/01 09:42:38;;;;;;;;;15.25;13.50;;;;;24.59;45.78;100993.22;5053396;28;45288;-45
2022/09/01 09:45:04;;;;;;;;;13.25;10.75;;;;;24.67;45.99;100989.94;5077954;28;45236;-44
2022/09/01 09:47:38;;;;;;;;;15.75;13.75;;;;;24.74;45.83;100988.44;5078589;28;46076;-46
2022/09/01 09:50:17;;;;;;;;;11.25;9.50;;;;;24.80;45.37;100992.44;5072757;28;45717;-45
2022/09/01 09:52:45;;;;;;;;;13.00;12.00;;;;;24.86;45.55;100985.72;5063944;28;45609;-46
2022/09/01 09:55:29;;;;;;;;;14.75;14.25;;;;;24.92;45.22;100988.72;5072702;28;45275;-44
2022/09/01 09:58:00;;;;;;;;;12.25;11.00;;;;;24.99;45.28;100986.41;5059622;28;46685;-45
2022/09/01 10:00:34;;;;;;;;;13.75;12.00;;;;;25.08;44.99;100987.47;5078505;28;45790;-44
2022/09/01 10:03:01;;;;;;;;;14.50;12.50;;;;;25.13;45.02;100990.59;5042925;28;45454;-45
2022/09/01 10:05:43;;;;;;;;;14.25;12.00;;;;;25.21;44.86;100985.41;5038566;28;45392;-45
2022/09/01 10:08:15;;;;;;;;;11.25;11.25;;;;;25.28;44.50;100983.09;5065551;28;47108;-44
2022/09/01 10:10:44;;;;;;;;;12.25;10.75;;;;;25.35;44.94;100987.78;5057711;28;45460;-43
2022/09/01 10:13:13;;;;;;;;;10.50;8.50;;;;;25.42;44.27;100989.97;5069853;28;45442;-43
2022/09/01 10:15:40;;;;;;;;;13.00;11.00;;;;;25.47;43.97;100982.38;5044383;28;45623;-42
2022/09/01 10:18:18;;;;;;;;;10.75;10.75;;;;;25.53;44.16;100981.84;5049240;28;45342;-44
2022/09/01 10:21:12;;;;;;;;;12.50;11.75;;;;;25.60;43.60;100983.00;5078785;28;45642;-44
2022/09/01 10:23:40;;;;;;;;;12.25;11.75;;;;;25.69;43.42;100982.22;5047841;28;45328;-44
2022/09/01 10:26:21;;;;;;;;;7.75;7.50;;;;;25.77;43.60;100974.34;5063245;28;45355;-45
2022/09/01 10:29:31;;;;;;;;;10.75;10.75;;;;;25.90;43.46;100973.25;5071657;28;45400;-45
2022/09/01 10:31:59;;;;;;;;;15.00;12.75;;;;;26.01;43.24;100978.59;4982242;28;45410;-50
2022/09/01 10:34:27;;;;;;;;;14.75;11.25;;;;;26.12;42.67;100977.63;4998676;28;45338;-44
2022/09/01 10:36:53;;;;;;;;;13.75;11.75;;;;;26.19;42.80;100964.50;5015579;28;45252;-43
2022/09/01 10:39:18;;;;;;;;;9.50;9.25;;;;;26.28;43.07;100969.06;5074793;28;45548;-45
2022/09/01 10:41:49;;;;;;;;;12.50;12.00;;;;;26.37;42.84;100975.44;5053888;28;45663;-44
2022/09/01 10:44:29;;;;;;;;;13.25;11.75;;;;;26.43;42.00;100970.31;5078613;27;45388;-46
2022/09/01 10:46:56;;;;;;;;;11.50;9.50;;;;;26.52;42.27;100974.00;5062243;28;45501;-44
2022/09/01 10:49:26;;;;;;;;;9.50;9.00;;;;;26.61;42.08;100965.16;5073113;28;45361;-44
2022/09/01 10:51:53;;;;;;;;;10.25;9.50;;;;;26.72;42.05;100958.81;5058082;28;45278;-44
2022/09/01 10:54:40;;;;;;;;;11.75;10.00;;;;;26.81;41.83;100957.13;5054297;28;45325;-46
2022/09/01 10:57:11;;;;;;;;;8.00;8.00;;;;;26.87;41.61;100956.53;5069612;28;45451;-44
2022/09/01 10:59:37;;;;;;;;;9.50;7.50;;;;;26.90;40.58;100957.09;5045827;28;46800;-44
2022/09/01 11:02:14;;;;;;;;;9.00;7.25;;;;;26.95;41.22;100950.44;5046838;28;45260;-44
2022/09/01 11:04:40;;;;;;;;;9.50;6.75;;;;;27.00;41.07;100945.50;5068696;28;45298;-45
2022/09/01 11:07:29;;;;;;;;;8.75;6.75;;;;;27.03;40.53;100954.13;5077678;28;45371;-45
2022/09/01 11:10:23;;;;;;;;;9.50;9.00;;;;;27.09;41.44;100950.88;5065585;28;45241;-44
2022/09/01 11:13:04;;;;;;;;;11.75;11.50;;;;;27.14;41.04;100950.41;5066403;28;46028;-44
2022/09/01 11:15:34;;;;;;;;;11.25;10.25;;;;;27.21;40.29;100946.16;5044748;28;45621;-43
2022/09/01 11:18:01;;;;;;;;;20.00;16.25;;;;;27.29;40.19;100937.44;5060119;28;45291;-45
2022/09/01 11:20:32;;;;;;;;;13.00;11.50;;;;;27.41;39.83;100935.41;5080312;28;46182;-43
2022/09/01 11:22:58;;;;;;;;;10.50;9.00;;;;;27.52;39.70;100932.53;5056915;28;45285;-46
2022/09/01 11:25:42;;;;;;;;;10.75;9.50;;;;;27.61;40.15;100939.72;5080201;27;45516;-43
2022/09/01 11:28:13;;;;;;;;;13.00;9.00;;;;;27.63;38.59;100928.81;5074634;28;45353;-43